This is the latest recevied weather packets stored in our database for station/object HB0RER-13. If no packets are shown the sender has not sent any weather packets the latest 10 day(s).
| Time | Temp. | Humidity | Pressure | Rain* | Wind** | Luminosity | Snow |
|---|---|---|---|---|---|---|---|
| 1777516503 | 6.11° C | 74% | 1022.1 hPa | 0 mm | - | - | - |
| 1777515881 | 6.11° C | 74% | 1022.1 hPa | 0 mm | - | - | - |
| 1777514677 | 6.67° C | 71% | 1022 hPa | 0 mm | - | - | - |
| 1777514075 | 6.67° C | 71% | 1022 hPa | 0 mm | - | - | - |
| 1777513494 | 7.22° C | 71% | 1021.8 hPa | 0 mm | - | - | - |
| 1777512871 | 7.22° C | 72% | 1021.9 hPa | 0 mm | - | - | - |
| 1777508657 | 8.33° C | 65% | 1021.5 hPa | 0 mm | - | - | - |
| 1777506249 | 8.89° C | 61% | 1021.4 hPa | 0 mm | - | - | - |
| 1777504443 | 10° C | 57% | 1021.3 hPa | 0 mm | - | - | - |
| 1777500831 | 11.67° C | 49% | 1020.8 hPa | 0 mm | - | - | - |
| 1777500230 | 12.22° C | 47% | 1020.7 hPa | 0 mm | - | - | - |
| 1777495414 | 13.33° C | 44% | 1020.3 hPa | 0 mm | - | - | - |
| 1777491801 | 15° C | 41% | 1019.8 hPa | 0 mm | - | - | - |
| 1777491199 | 15.56° C | 40% | 1019.7 hPa | 0 mm | - | - | - |
| 1777489996 | 16.11° C | 40% | 1019.5 hPa | 0 mm | - | - | - |
| 1777488792 | 16.11° C | 41% | 1019.3 hPa | 0 mm | - | - | - |
| 1777485781 | 17.22° C | 45% | 1018.7 hPa | 0 mm | - | - | - |
| 1777481588 | 18.33° C | 44% | 1018.3 hPa | 0 mm | - | - | - |
| 1777477955 | 18.89° C | 56% | 1018.3 hPa | 0 mm | - | - | - |
| 1777476751 | 18.89° C | 59% | 1018.2 hPa | 0 mm | - | - | - |
| 1777474946 | 17.78° C | 61% | 1018.3 hPa | 0 mm | - | - | - |
| 1777471333 | 18.33° C | 61% | 1018.4 hPa | 0 mm | - | - | - |
| 1777467741 | 18.33° C | 63% | 1018.8 hPa | 0 mm | - | - | - |
| 1777454478 | 13.89° C | 91% | 1019.2 hPa | 0 mm | - | - | - |
| 1777453273 | 13.89° C | 91% | 1019.3 hPa | 0.25 mm | - | - | - |
* Rain latest hour (hover to see other rain measurements)
** Current wind speed in m/s (hover to see current wind gust speed)